Time;durP1;ratioP1;P1;durP2;ratioP2;P2;SDS_P1;SDS_P2;PMS_P1;PMS_P2;Temp;Humidity;BMP_temperature;BMP_pressure;BME280_temperature;BME280_humidity;BME280_pressure;Samples;Min_cycle;Max_cycle;Signal;HPM_P1;HPM_P2
2023/09/21 00:01:39;;;;;;;33.58;17.45;;;;;;;16.64;93.30;97779.91;10239565;28;20081;-52
2023/09/21 00:06:38;;;;;;;28.10;17.58;;;;;;;16.68;93.44;97792.88;10240344;28;20458;-51
2023/09/21 00:11:40;;;;;;;36.92;20.90;;;;;;;16.56;94.53;97792.31;10245917;28;20404;-53
2023/09/21 00:16:40;;;;;;;36.25;23.15;;;;;;;16.43;95.28;97795.25;10227818;28;20078;-51
2023/09/21 00:21:39;;;;;;;39.20;22.08;;;;;;;16.43;94.97;97789.16;10198138;28;20057;-51
2023/09/21 00:26:38;;;;;;;36.13;24.23;;;;;;;16.44;94.91;97793.47;10204996;28;20027;-51
2023/09/21 00:31:37;;;;;;;;;;;;;;;16.42;94.89;97788.28;10204286;28;20067;-52
2023/09/21 00:36:36;;;;;;;35.40;23.80;;;;;;;16.24;94.84;97752.06;10204263;28;19960;-52
2023/09/21 00:41:36;;;;;;;35.58;23.23;;;;;;;16.44;94.92;97783.88;10244596;28;20118;-52
2023/09/21 00:46:38;;;;;;;41.97;23.80;;;;;;;16.41;94.76;97790.94;10251596;28;20080;-52
2023/09/21 00:51:39;;;;;;;37.97;24.15;;;;;;;16.42;94.76;97804.00;10252607;28;20073;-51
2023/09/21 00:56:38;;;;;;;35.25;23.17;;;;;;;16.37;94.87;97790.16;10247130;28;20082;-52
2023/09/21 01:01:37;;;;;;;41.92;23.48;;;;;;;16.35;94.72;97804.16;10251851;28;20077;-52
2023/09/21 01:06:36;;;;;;;37.10;23.23;;;;;;;16.25;95.31;97793.91;10233481;28;20026;-53
2023/09/21 01:11:37;;;;;;;;;;;;;;;16.27;95.48;97802.59;10235009;28;20823;-51
2023/09/21 01:16:36;;;;;;;33.40;21.70;;;;;;;16.32;95.12;97805.09;10251281;28;19949;-51
2023/09/21 01:21:40;;;;;;;37.53;24.83;;;;;;;16.34;95.09;97795.44;10249422;28;20041;-52
2023/09/21 01:26:40;;;;;;;36.03;24.25;;;;;;;16.37;95.00;97791.91;10250340;28;20053;-52
2023/09/21 01:31:39;;;;;;;34.97;23.42;;;;;;;16.33;95.01;97779.78;10251044;28;20114;-52
2023/09/21 01:36:38;;;;;;;46.70;25.48;;;;;;;16.41;94.87;97785.69;10203289;28;20077;-53
2023/09/21 01:41:37;;;;;;;41.67;27.00;;;;;;;16.40;94.76;97784.00;10211271;28;20023;-52
2023/09/21 01:46:36;;;;;;;;;;;;;;;16.39;94.83;97769.16;10210858;28;20040;-52
2023/09/21 01:51:37;;;;;;;37.23;25.07;;;;;;;16.40;94.58;97766.50;10210207;28;20027;-52
2023/09/21 01:56:36;;;;;;;35.65;23.50;;;;;;;16.36;94.53;97767.47;10209715;28;20061;-52
2023/09/21 02:01:36;;;;;;;37.80;22.70;;;;;;;16.32;94.73;97757.97;10209928;28;20562;-52
2023/09/21 02:06:34;;;;;;;41.17;25.85;;;;;;;16.28;94.90;97751.09;10216519;28;20522;-51
2023/09/21 02:11:33;;;;;;;38.95;24.08;;;;;;;16.31;94.81;97735.31;10249716;28;20034;-52
2023/09/21 02:16:33;;;;;;;;;;;;;;;16.27;94.94;97728.41;10246901;28;20549;-50
2023/09/21 02:21:34;;;;;;;46.13;29.40;;;;;;;16.28;95.04;97735.38;10245872;28;19921;-53
2023/09/21 02:26:37;;;;;;;57.10;35.72;;;;;;;16.16;96.31;97731.31;10248198;28;20502;-52
2023/09/21 02:31:37;;;;;;;47.45;31.60;;;;;;;16.17;96.61;97734.78;10237571;28;20506;-51
2023/09/21 02:36:36;;;;;;;35.35;24.15;;;;;;;16.12;96.25;97720.94;10247430;28;20074;-51
2023/09/21 02:41:35;;;;;;;;;;;;;;;16.16;95.82;97726.06;10249284;28;20476;-52
2023/09/21 02:46:33;;;;;;;34.53;21.83;;;;;;;16.12;94.86;97728.78;10248098;28;19961;-50
2023/09/21 02:51:32;;;;;;;;;;;;;;;15.88;94.68;97729.31;10248678;28;20142;-52
2023/09/21 02:56:31;;;;;;;51.57;32.60;;;;;;;15.42;96.24;97721.59;10247569;28;20044;-49
2023/09/21 03:01:30;;;;;;;;;;;;;;;15.64;96.00;97745.50;10246670;28;20042;-51
2023/09/21 03:06:32;;;;;;;51.83;32.13;;;;;;;15.77;95.59;97740.91;10240124;28;19918;-52
2023/09/21 03:11:31;;;;;;;46.15;31.05;;;;;;;15.82;95.46;97741.69;10246524;28;20118;-51
2023/09/21 03:16:30;;;;;;;;;;;;;;;15.92;95.79;97737.09;10247575;28;20040;-51
2023/09/21 03:21:30;;;;;;;53.43;30.53;;;;;;;16.04;95.23;97729.84;10246655;28;19914;-50
2023/09/21 03:26:29;;;;;;;48.10;30.58;;;;;;;16.04;95.44;97732.47;10246891;28;20073;-51
2023/09/21 03:31:28;;;;;;;48.45;31.90;;;;;;;16.11;95.40;97742.75;10246602;28;20032;-51
2023/09/21 03:36:27;;;;;;;;;;;;;;;16.18;95.43;97745.19;10247163;28;20039;-51
2023/09/21 03:41:27;;;;;;;34.50;22.73;;;;;;;16.27;95.11;97747.59;10248468;28;20377;-51
2023/09/21 03:46:25;;;;;;;31.20;21.58;;;;;;;16.35;95.01;97731.72;10247805;28;20062;-51
2023/09/21 03:51:24;;;;;;;31.95;22.15;;;;;;;16.40;94.97;97734.22;10240832;28;20125;-51
2023/09/21 03:56:23;;;;;;;37.70;25.55;;;;;;;16.45;94.92;97727.97;10230469;28;20045;-52
2023/09/21 04:01:22;;;;;;;;;;;;;;;16.48;94.42;97730.50;10248368;28;20513;-54
2023/09/21 04:06:21;;;;;;;35.73;27.20;;;;;;;16.43;94.97;97703.56;10237774;28;19914;-51
2023/09/21 04:11:20;;;;;;;40.78;25.10;;;;;;;16.22;94.34;97670.06;10248160;28;20113;-52
2023/09/21 04:16:19;;;;;;;;;;;;;;;16.59;94.48;97716.28;10248797;28;20041;-52
2023/09/21 04:21:18;;;;;;;48.93;28.40;;;;;;;16.61;94.13;97710.09;10247819;28;20385;-52
2023/09/21 04:26:17;;;;;;;39.85;26.25;;;;;;;16.65;94.12;97718.72;10221862;28;20049;-52
2023/09/21 04:31:15;;;;;;;;;;;;;;;16.72;93.93;97722.91;10260696;28;20042;-52
2023/09/21 04:36:14;;;;;;;38.13;25.63;;;;;;;16.77;93.51;97725.41;10286842;28;19917;-51
2023/09/21 04:41:14;;;;;;;;;;;;;;;16.84;93.48;97719.13;10283616;28;20038;-51
2023/09/21 04:46:13;;;;;;;39.38;24.77;;;;;;;16.90;93.60;97718.97;10275290;28;20548;-52
2023/09/21 04:51:14;;;;;;;36.20;24.02;;;;;;;16.99;93.78;97712.63;10270201;28;20140;-52
2023/09/21 04:56:13;;;;;;;32.65;24.92;;;;;;;17.06;92.94;97706.31;10279281;28;20062;-52
2023/09/21 05:01:12;;;;;;;37.92;24.70;;;;;;;16.98;92.89;97692.53;10282102;28;20087;-51
2023/09/21 05:06:11;;;;;;;37.00;25.20;;;;;;;17.16;92.36;97726.13;10239082;28;20133;-52
2023/09/21 05:11:10;;;;;;;38.80;25.02;;;;;;;16.30;92.29;97573.84;10237095;28;20121;-52
2023/09/21 05:16:10;;;;;;;35.97;24.05;;;;;;;17.23;92.16;97722.44;10240921;28;20118;-51
2023/09/21 05:21:09;;;;;;;43.33;24.20;;;;;;;17.34;91.68;97727.38;10240553;28;20085;-52
2023/09/21 05:26:08;;;;;;;36.90;23.45;;;;;;;17.06;91.15;97670.47;10260915;28;20595;-52
2023/09/21 05:31:10;;;;;;;32.17;23.80;;;;;;;17.41;91.30;97722.81;10279562;28;20755;-52
2023/09/21 05:36:09;;;;;;;31.13;22.17;;;;;;;17.47;91.02;97731.38;10283566;28;20080;-51
2023/09/21 05:41:10;;;;;;;33.97;22.27;;;;;;;17.39;90.95;97724.63;10260092;28;20034;-51
2023/09/21 05:46:11;;;;;;;33.97;22.52;;;;;;;17.51;90.52;97729.50;10246797;28;20085;-51
2023/09/21 05:51:11;;;;;;;36.22;22.85;;;;;;;17.50;90.21;97719.94;10268105;28;20549;-52
2023/09/21 05:56:11;;;;;;;34.72;21.73;;;;;;;17.54;90.46;97732.03;10276471;28;20057;-52
2023/09/21 06:01:10;;;;;;;41.42;22.77;;;;;;;17.61;90.26;97733.56;10278075;28;20077;-52
2023/09/21 06:06:10;;;;;;;32.70;22.60;;;;;;;17.80;89.87;97733.94;10246872;28;20137;-51
2023/09/21 06:11:08;;;;;;;36.20;21.63;;;;;;;17.94;89.39;97738.72;10269072;28;20113;-51
2023/09/21 06:16:08;;;;;;;35.47;21.58;;;;;;;17.54;89.17;97667.31;10279811;28;20416;-52
2023/09/21 06:21:07;;;;;;;30.63;22.27;;;;;;;18.06;88.90;97741.00;10265363;28;20548;-51
2023/09/21 06:26:07;;;;;;;37.80;21.27;;;;;;;18.24;88.62;97747.41;10275894;28;20086;-52
2023/09/21 06:31:07;;;;;;;31.33;20.60;;;;;;;18.39;87.46;97740.84;10262879;28;20117;-51
2023/09/21 06:36:14;;;;;;;29.83;19.95;;;;;;;18.32;87.68;97732.28;10246249;28;20129;-52
2023/09/21 06:41:14;;;;;;;38.72;20.13;;;;;;;18.45;87.07;97730.09;10258547;28;20102;-51
2023/09/21 06:46:13;;;;;;;29.38;20.85;;;;;;;17.94;86.50;97625.84;10281602;28;20057;-52
2023/09/21 06:51:12;;;;;;;27.88;19.17;;;;;;;18.78;86.12;97737.78;10279247;28;20065;-51
2023/09/21 06:56:11;;;;;;;36.78;21.17;;;;;;;18.66;85.47;97683.00;10238924;28;20113;-51
2023/09/21 07:01:11;;;;;;;36.35;18.88;;;;;;;19.15;84.53;97740.00;10274389;28;20107;-51
2023/09/21 07:06:10;;;;;;;35.80;19.15;;;;;;;19.48;83.80;97728.31;10253664;28;20779;-51
2023/09/21 07:11:11;;;;;;;24.88;16.77;;;;;;;19.33;83.75;97721.84;10252389;28;20085;-52
2023/09/21 07:16:10;;;;;;;24.35;17.27;;;;;;;19.47;83.87;97739.75;10230147;28;20086;-52
2023/09/21 07:21:09;;;;;;;21.58;14.52;;;;;;;19.84;82.85;97742.75;10238545;28;20030;-53
2023/09/21 07:26:08;;;;;;;21.48;14.30;;;;;;;20.16;81.46;97698.44;10246609;28;20116;-54
2023/09/21 07:31:09;;;;;;;19.33;13.77;;;;;;;20.73;77.86;97745.34;10260665;28;20120;-52
2023/09/21 07:36:11;;;;;;;24.60;13.90;;;;;;;21.01;75.29;97716.91;10268943;28;20128;-52
2023/09/21 07:41:13;;;;;;;19.58;13.07;;;;;;;21.42;73.77;97730.06;10248754;28;20157;-52
2023/09/21 07:46:12;;;;;;;19.70;12.27;;;;;;;21.82;72.03;97717.66;10239013;28;20117;-52
2023/09/21 07:51:13;;;;;;;17.42;12.43;;;;;;;22.11;70.79;97739.25;10244533;28;20033;-52
2023/09/21 07:56:13;;;;;;;19.77;12.77;;;;;;;22.30;69.06;97734.78;10241472;28;20129;-52
2023/09/21 08:01:12;;;;;;;17.15;12.13;;;;;;;22.55;68.55;97722.97;10242207;28;20097;-52
2023/09/21 08:06:11;;;;;;;15.70;10.77;;;;;;;22.88;67.51;97724.88;10258010;28;20572;-53
2023/09/21 08:11:10;;;;;;;18.50;11.15;;;;;;;23.32;63.65;97725.19;10266349;28;20117;-52
2023/09/21 08:16:09;;;;;;;18.85;10.45;;;;;;;23.42;63.10;97720.28;10260571;28;20030;-52
2023/09/21 08:21:11;;;;;;;19.45;10.98;;;;;;;23.31;60.76;97699.66;10251751;28;20045;-56
2023/09/21 08:26:13;;;;;;;19.33;10.57;;;;;;;23.75;60.32;97716.78;10247252;28;20121;-52
2023/09/21 08:31:13;;;;;;;17.30;10.35;;;;;;;23.90;58.16;97715.91;10249869;28;20474;-53
2023/09/21 08:36:15;;;;;;;17.95;10.95;;;;;;;24.08;57.60;97713.19;10257084;28;20133;-52
2023/09/21 08:41:15;;;;;;;18.58;11.07;;;;;;;24.33;58.46;97713.50;10251159;28;20149;-52
2023/09/21 08:46:16;;;;;;;16.48;10.48;;;;;;;24.29;58.15;97712.00;10235092;28;20200;-52
2023/09/21 08:51:17;;;;;;;17.92;9.80;;;;;;;24.46;58.36;97714.53;10244870;28;20125;-53
2023/09/21 08:56:16;;;;;;;14.80;10.07;;;;;;;24.36;57.66;97718.66;10262197;28;20129;-52
2023/09/21 09:01:17;;;;;;;14.52;10.30;;;;;;;24.53;58.09;97703.56;10239763;28;20532;-54
2023/09/21 09:06:16;;;;;;;18.42;9.52;;;;;;;24.78;56.71;97705.59;10283017;28;20113;-52
2023/09/21 09:11:48;;;;;;;13.60;9.10;;;;;;;24.58;57.34;97701.50;10281852;28;20030;-53
2023/09/21 09:16:46;;;;;;;17.40;9.40;;;;;;;24.32;57.89;97700.34;10220730;28;20148;-52
2023/09/21 09:21:47;;;;;;;12.75;8.98;;;;;;;24.31;58.18;97665.03;10258828;28;20022;-53
2023/09/21 09:26:47;;;;;;;16.10;9.85;;;;;;;24.78;56.64;97698.53;10276536;28;20136;-54
2023/09/21 09:31:47;;;;;;;15.50;8.50;;;;;;;25.27;56.26;97702.66;10268401;28;20125;-54
2023/09/21 09:36:52;;;;;;;16.23;9.38;;;;;;;25.50;54.94;97701.25;10261992;28;20128;-54
2023/09/21 09:41:53;;;;;;;16.23;8.95;;;;;;;26.05;53.90;97699.59;10258934;28;20129;-54
2023/09/21 09:47:01;;;;;;;16.48;8.15;;;;;;;26.50;52.70;97686.91;10270029;28;20092;-53
2023/09/21 09:52:01;;;;;;;14.17;9.80;;;;;;;26.72;51.46;97680.97;10256757;28;20780;-54
2023/09/21 09:57:01;;;;;;;17.35;9.70;;;;;;;26.91;50.71;97676.16;10267043;28;20066;-54
2023/09/21 10:02:00;;;;;;;16.98;9.50;;;;;;;26.62;49.87;97600.06;10272127;28;20072;-54
2023/09/21 10:07:00;;;;;;;17.10;9.65;;;;;;;27.40;48.41;97674.50;10265817;28;20076;-54
2023/09/21 10:12:03;;;;;;;11.57;8.80;;;;;;;27.57;48.44;97673.38;10266503;28;20133;-55
2023/09/21 10:17:04;;;;;;;15.27;9.95;;;;;;;27.48;48.82;97674.03;10268479;28;20141;-55
2023/09/21 10:22:29;;;;;;;11.88;6.15;;;;;;;27.46;45.87;97668.78;10274394;28;20632;-54
2023/09/21 10:27:28;;;;;;;9.73;5.80;;;;;;;27.69;45.90;97653.81;10276335;28;20133;-54
2023/09/21 10:32:41;;;;;;;8.15;5.68;;;;;;;27.72;45.54;97618.91;10267416;28;20145;-55
2023/09/21 10:37:40;;;;;;;8.27;5.50;;;;;;;27.86;44.70;97614.41;10272297;28;20458;-54
2023/09/21 10:42:40;;;;;;;11.88;6.70;;;;;;;28.09;43.45;97653.59;10274561;28;20594;-54
2023/09/21 10:47:51;;;;;;;11.35;6.90;;;;;;;28.27;45.21;97655.84;10261964;28;20078;-54
2023/09/21 10:52:55;;;;;;;11.57;7.05;;;;;;;27.67;45.72;97650.41;10273411;28;20128;-54
2023/09/21 10:57:57;;;;;;;14.57;7.22;;;;;;;27.37;46.39;97651.59;10285767;28;20092;-53
2023/09/21 11:02:56;;;;;;;13.45;6.60;;;;;;;26.65;48.09;97655.72;10280851;28;20069;-54
2023/09/21 11:07:58;;;;;;;10.88;6.60;;;;;;;26.58;48.39;97648.19;10266646;28;20117;-53
2023/09/21 11:12:57;;;;;;;10.82;7.13;;;;;;;26.30;51.67;97648.31;10263572;28;20732;-53
2023/09/21 11:17:57;;;;;;;12.32;6.45;;;;;;;26.20;50.11;97625.94;10266602;28;20428;-53
2023/09/21 11:22:56;;;;;;;11.82;7.15;;;;;;;26.30;50.25;97624.38;10257366;28;20065;-52
2023/09/21 11:27:59;;;;;;;8.48;6.63;;;;;;;26.44;49.19;97619.00;10278176;28;20037;-53
2023/09/21 11:32:58;;;;;;;11.77;6.60;;;;;;;26.58;48.62;97616.25;10273807;28;20061;-53
2023/09/21 11:37:57;;;;;;;13.35;5.88;;;;;;;26.98;47.00;97610.84;10285323;28;20481;-54
2023/09/21 11:42:58;;;;;;;12.07;7.20;;;;;;;27.44;46.50;97609.38;10274970;28;20080;-54
2023/09/21 11:47:58;;;;;;;12.57;6.22;;;;;;;27.77;46.31;97598.09;10284693;28;20076;-53
2023/09/21 11:52:58;;;;;;;13.63;6.47;;;;;;;28.32;44.13;97597.66;10281584;28;20085;-53
2023/09/21 11:58:11;;;;;;;10.82;6.45;;;;;;;28.55;43.28;97591.41;10268897;28;20080;-54
2023/09/21 12:03:14;;;;;;;17.15;6.80;;;;;;;28.97;44.39;97574.84;10275240;28;20510;-53
2023/09/21 12:08:14;;;;;;;8.15;5.47;;;;;;;29.29;41.20;97577.66;10269579;28;20077;-53
2023/09/21 12:13:14;;;;;;;10.52;5.93;;;;;;;29.44;41.58;97573.75;10278962;28;20073;-54
2023/09/21 12:18:13;;;;;;;20.27;6.43;;;;;;;29.46;40.69;97571.81;10266545;28;20092;-54
2023/09/21 12:23:12;;;;;;;12.63;6.00;;;;;;;29.45;40.99;97562.09;10271366;28;20383;-54
2023/09/21 12:28:11;;;;;;;12.00;5.20;;;;;;;29.11;39.95;97539.00;10256147;28;20045;-54
2023/09/21 12:33:15;;;;;;;12.70;5.85;;;;;;;29.15;40.97;97569.88;10265241;28;20077;-54
2023/09/21 12:38:15;;;;;;;9.40;4.90;;;;;;;29.25;40.54;97558.34;10259829;28;20078;-54
2023/09/21 12:43:16;;;;;;;8.35;5.40;;;;;;;29.46;42.52;97550.44;10271653;28;20069;-54
2023/09/21 12:48:15;;;;;;;10.25;5.50;;;;;;;29.66;39.43;97542.59;10280345;28;20481;-54
2023/09/21 12:53:14;;;;;;;10.75;4.90;;;;;;;29.95;38.62;97534.00;10258644;28;20507;-54
2023/09/21 12:58:12;;;;;;;9.77;5.22;;;;;;;30.13;38.42;97532.47;10258445;28;20701;-54
2023/09/21 13:03:12;;;;;;;11.13;4.85;;;;;;;30.33;38.71;97533.47;10267008;28;20030;-55
2023/09/21 13:08:17;;;;;;;9.63;5.10;;;;;;;30.42;38.04;97510.41;10276140;28;20149;-54
2023/09/21 13:13:16;;;;;;;11.57;5.93;;;;;;;30.72;37.75;97521.13;10280509;28;20576;-55
2023/09/21 13:18:16;;;;;;;6.93;4.82;;;;;;;30.64;37.23;97515.63;10286762;28;20053;-54
2023/09/21 13:23:15;;;;;;;9.02;5.78;;;;;;;30.54;37.67;97530.78;10284726;28;20069;-54
2023/09/21 13:28:14;;;;;;;10.15;5.45;;;;;;;30.20;38.47;97520.25;10278842;28;20034;-54
2023/09/21 13:33:14;;;;;;;10.57;5.82;;;;;;;29.83;38.40;97488.53;10263525;28;20107;-54
2023/09/21 13:38:13;;;;;;;10.48;5.65;;;;;;;28.43;37.64;97240.88;10266758;28;20077;-55
2023/09/21 13:43:14;;;;;;;13.10;6.05;;;;;;;29.82;38.23;97505.56;10267462;28;20132;-54
2023/09/21 13:48:13;;;;;;;10.02;6.20;;;;;;;29.53;38.69;97509.81;10269704;28;20069;-54
2023/09/21 13:53:12;;;;;;;13.43;6.25;;;;;;;29.33;39.71;97492.75;10267239;28;20109;-54
2023/09/21 13:58:11;;;;;;;10.00;5.85;;;;;;;28.66;39.28;97393.84;10266986;28;20045;-54
2023/09/21 14:03:11;;;;;;;9.73;5.97;;;;;;;28.97;39.77;97471.53;10257261;28;20138;-54
2023/09/21 14:08:11;;;;;;;8.77;5.60;;;;;;;28.91;40.63;97498.72;10275022;28;20534;-54
2023/09/21 14:13:12;;;;;;;11.15;6.15;;;;;;;28.82;40.68;97496.78;10262584;28;20089;-54
2023/09/21 14:18:11;;;;;;;10.30;5.90;;;;;;;28.81;40.76;97495.94;10272553;28;20531;-54
2023/09/21 14:23:10;;;;;;;9.65;6.15;;;;;;;28.86;39.69;97493.75;10279393;28;20081;-54
2023/09/21 14:28:09;;;;;;;12.45;6.30;;;;;;;28.55;40.86;97483.75;10262624;28;20029;-54
2023/09/21 14:33:08;;;;;;;12.40;5.85;;;;;;;28.36;40.47;97490.56;10272797;28;20082;-54
2023/09/21 14:38:08;;;;;;;8.88;5.93;;;;;;;28.34;41.03;97492.50;10257611;28;20048;-54
2023/09/21 14:43:07;;;;;;;10.02;5.65;;;;;;;28.43;39.92;97486.44;10269373;28;20056;-54
2023/09/21 14:48:06;;;;;;;15.52;6.68;;;;;;;28.29;40.68;97473.31;10254116;28;20243;-54
2023/09/21 14:53:05;;;;;;;11.70;5.93;;;;;;;28.09;40.70;97466.84;10267938;28;20500;-54
2023/09/21 14:58:04;;;;;;;10.43;6.43;;;;;;;27.98;41.32;97472.13;10269486;28;20128;-54
2023/09/21 15:03:04;;;;;;;13.73;6.22;;;;;;;27.67;42.43;97470.94;10252656;28;20470;-56
2023/09/21 15:08:04;;;;;;;13.23;6.00;;;;;;;27.70;42.87;97471.53;10279351;28;20069;-54
2023/09/21 15:13:03;;;;;;;10.13;5.63;;;;;;;27.67;43.17;97468.28;10248100;28;20117;-54
2023/09/21 15:18:02;;;;;;;14.30;6.75;;;;;;;27.61;42.95;97473.09;10268159;28;20125;-56
2023/09/21 15:23:01;;;;;;;13.82;6.13;;;;;;;27.53;44.13;97474.63;10265338;28;20117;-55
2023/09/21 15:28:00;;;;;;;13.40;6.28;;;;;;;27.41;44.21;97471.03;10254873;28;20122;-56
2023/09/21 15:32:59;;;;;;;13.10;6.75;;;;;;;27.32;44.49;97461.06;10261470;28;20122;-55
2023/09/21 15:37:58;;;;;;;15.38;7.35;;;;;;;27.11;45.51;97453.66;10247268;28;20042;-53
2023/09/21 15:42:57;;;;;;;11.95;6.25;;;;;;;26.94;46.18;97444.25;10253032;28;20113;-54
2023/09/21 15:47:55;;;;;;;14.32;7.57;;;;;;;26.75;46.70;97450.03;10256492;28;20033;-53
2023/09/21 15:52:54;;;;;;;10.32;7.55;;;;;;;26.62;47.92;97445.69;10254685;28;20034;-54
2023/09/21 15:57:53;;;;;;;14.43;8.00;;;;;;;26.43;49.40;97441.66;10246854;28;20030;-54
2023/09/21 16:02:53;;;;;;;14.75;7.50;;;;;;;26.15;50.28;97435.56;10257346;28;20073;-55
2023/09/21 16:07:52;;;;;;;15.20;8.10;;;;;;;25.82;51.23;97435.25;10256474;28;20058;-54
2023/09/21 16:12:51;;;;;;;15.68;8.00;;;;;;;25.60;52.34;97433.16;10262317;28;20026;-55
2023/09/21 16:17:50;;;;;;;14.27;8.27;;;;;;;25.31;52.84;97442.09;10268340;28;20132;-54
2023/09/21 16:22:49;;;;;;;13.10;8.27;;;;;;;25.05;54.17;97450.91;10244366;28;20636;-54
2023/09/21 16:27:48;;;;;;;22.23;9.40;;;;;;;24.73;54.79;97460.91;10242745;28;20053;-53
2023/09/21 16:32:49;;;;;;;18.10;9.90;;;;;;;24.52;55.62;97476.34;10244819;28;20054;-53
2023/09/21 16:37:49;;;;;;;19.23;10.02;;;;;;;24.27;56.77;97481.38;10259292;28;20065;-53
2023/09/21 16:42:48;;;;;;;18.10;9.95;;;;;;;24.02;58.11;97489.91;10264329;28;20469;-53
2023/09/21 16:47:47;;;;;;;16.13;10.00;;;;;;;23.58;59.33;97461.63;10275160;28;20749;-53
2023/09/21 16:52:46;;;;;;;21.13;10.85;;;;;;;23.56;60.96;97500.59;10257704;28;20482;-53
2023/09/21 16:57:45;;;;;;;17.38;11.32;;;;;;;23.35;62.44;97504.41;10267473;28;20425;-53
2023/09/21 17:02:45;;;;;;;21.80;11.63;;;;;;;23.13;63.27;97513.56;10269760;28;20510;-52
2023/09/21 17:07:44;;;;;;;14.55;10.93;;;;;;;22.95;63.56;97498.69;10265769;28;20065;-51
2023/09/21 17:12:45;;;;;;;22.58;10.68;;;;;;;22.74;65.14;97501.59;10274761;28;20034;-52
2023/09/21 17:17:46;;;;;;;16.40;10.85;;;;;;;22.55;65.10;97503.47;10262247;28;20065;-52
2023/09/21 17:22:45;;;;;;;18.23;11.20;;;;;;;22.33;66.93;97507.25;10261048;28;20057;-52
2023/09/21 17:27:44;;;;;;;20.70;11.80;;;;;;;22.21;67.73;97486.75;10275145;28;20032;-53
2023/09/21 17:32:43;;;;;;;19.38;12.95;;;;;;;21.99;68.04;97486.16;10274014;28;20420;-53
2023/09/21 17:37:42;;;;;;;20.48;14.35;;;;;;;21.89;70.19;97486.59;10268908;28;20105;-53
2023/09/21 17:42:42;;;;;;;22.80;16.75;;;;;;;21.73;70.20;97483.00;10257955;28;20141;-52
2023/09/21 17:47:41;;;;;;;23.58;18.05;;;;;;;21.60;71.33;97505.72;10265370;28;20073;-53
2023/09/21 17:52:41;;;;;;;19.23;13.38;;;;;;;21.55;72.26;97506.78;10265241;28;20057;-52
2023/09/21 17:57:40;;;;;;;17.00;11.85;;;;;;;21.44;72.08;97495.03;10264351;28;20065;-51
2023/09/21 18:02:40;;;;;;;19.77;11.65;;;;;;;21.50;73.02;97526.41;10250793;28;20145;-52
2023/09/21 18:07:39;;;;;;;15.98;11.45;;;;;;;21.56;75.52;97520.84;10270583;28;20133;-51
2023/09/21 18:12:40;;;;;;;20.02;12.05;;;;;;;21.50;76.32;97515.84;10264742;28;20110;-52
2023/09/21 18:17:40;;;;;;;19.67;11.77;;;;;;;21.44;78.14;97514.38;10252123;28;20076;-52
2023/09/21 18:22:39;;;;;;;23.27;14.73;;;;;;;21.38;79.28;97522.56;10267399;28;20057;-51
2023/09/21 18:27:38;;;;;;;18.88;12.68;;;;;;;21.14;80.18;97565.00;10260646;28;20026;-52
2023/09/21 18:32:37;;;;;;;16.83;10.60;;;;;;;20.87;81.15;97593.53;10254452;28;20113;-52
2023/09/21 18:37:37;;;;;;;14.57;10.48;;;;;;;20.84;80.80;97584.88;10250616;28;20080;-54
2023/09/21 18:42:36;;;;;;;33.72;19.33;;;;;;;20.86;81.95;97601.50;10253075;28;20114;-55
2023/09/21 18:47:35;;;;;;;29.95;19.98;;;;;;;20.89;82.41;97614.53;10252647;28;20065;-53
2023/09/21 18:52:35;;;;;;;25.17;15.55;;;;;;;20.39;86.06;97584.19;10260396;28;20065;-52
2023/09/21 18:57:34;;;;;;;27.92;18.02;;;;;;;20.47;86.98;97613.75;10254341;28;20096;-52
2023/09/21 19:02:33;;;;;;;20.15;13.82;;;;;;;20.34;86.58;97598.50;10255100;28;20440;-51
2023/09/21 19:07:32;;;;;;;16.92;11.75;;;;;;;20.21;86.60;97590.25;10260809;28;20040;-52
2023/09/21 19:12:32;;;;;;;18.05;11.35;;;;;;;20.12;85.98;97588.88;10272008;28;20049;-52
2023/09/21 19:17:32;;;;;;;14.02;10.60;;;;;;;20.06;85.89;97563.63;10250437;28;20092;-52
2023/09/21 19:22:31;;;;;;;15.20;10.60;;;;;;;20.02;85.41;97555.91;10262136;28;20108;-52
2023/09/21 19:27:30;;;;;;;15.60;10.40;;;;;;;19.94;84.71;97552.75;10262221;28;20061;-51
2023/09/21 19:32:31;;;;;;;14.85;10.25;;;;;;;19.86;82.02;97540.78;10262274;28;20072;-52
2023/09/21 19:37:30;;;;;;;13.95;9.98;;;;;;;19.97;80.45;97523.66;10256356;28;20600;-52
2023/09/21 19:42:29;;;;;;;14.10;8.93;;;;;;;19.64;78.39;97460.97;10267547;28;20508;-52
2023/09/21 19:47:28;;;;;;;13.57;8.77;;;;;;;20.15;75.72;97533.41;10261886;28;20133;-52
2023/09/21 19:52:27;;;;;;;13.88;8.65;;;;;;;20.39;73.20;97533.25;10275896;28;20113;-52
2023/09/21 19:57:27;;;;;;;12.57;8.25;;;;;;;20.58;72.74;97531.53;10260212;28;20070;-52
2023/09/21 20:02:26;;;;;;;9.63;7.93;;;;;;;20.70;70.72;97525.72;10269501;28;20070;-52
2023/09/21 20:07:25;;;;;;;9.93;7.85;;;;;;;20.75;69.26;97529.91;10271142;28;20076;-51
2023/09/21 20:12:25;;;;;;;9.57;7.68;;;;;;;20.85;67.76;97537.34;10269727;28;20030;-52
2023/09/21 20:17:24;;;;;;;11.95;7.72;;;;;;;21.00;66.96;97522.59;10278948;28;20469;-52
2023/09/21 20:22:23;;;;;;;12.00;8.27;;;;;;;21.00;66.84;97519.09;10275540;28;20066;-52
2023/09/21 20:27:22;;;;;;;12.13;8.82;;;;;;;21.00;68.13;97514.66;10276874;28;20116;-52
2023/09/21 20:32:21;;;;;;;12.57;8.98;;;;;;;21.01;68.01;97508.47;10276397;28;20496;-52
2023/09/21 20:37:21;;;;;;;11.25;6.75;;;;;;;20.75;65.60;97474.53;10283758;28;20124;-53
2023/09/21 20:42:20;;;;;;;10.98;6.82;;;;;;;20.91;63.36;97475.53;10281636;28;20078;-52
2023/09/21 20:47:19;;;;;;;11.95;6.40;;;;;;;21.08;61.63;97488.78;10282324;28;20038;-52
2023/09/21 20:52:18;;;;;;;9.93;6.82;;;;;;;21.40;60.42;97509.31;10281140;28;20126;-51
2023/09/21 20:57:17;;;;;;;11.35;6.75;;;;;;;21.49;60.99;97517.63;10275454;28;20145;-52
2023/09/21 21:02:16;;;;;;;13.73;7.35;;;;;;;21.50;59.93;97519.34;10284988;28;20070;-52
2023/09/21 21:07:15;;;;;;;11.55;7.18;;;;;;;21.54;59.62;97512.13;10280746;28;20081;-52
2023/09/21 21:12:14;;;;;;;12.25;6.78;;;;;;;21.61;58.82;97504.75;10281072;28;20030;-52
2023/09/21 21:17:13;;;;;;;11.20;5.85;;;;;;;21.67;58.24;97486.84;10283006;28;20917;-51
2023/09/21 21:22:12;;;;;;;12.27;6.53;;;;;;;21.70;58.14;97464.69;10265625;28;20101;-54
2023/09/21 21:27:11;;;;;;;11.45;5.90;;;;;;;;;;10262287;28;20038;-52
2023/09/21 21:32:10;;;;;;;11.55;6.63;;;;;;;21.83;57.13;97481.63;10290587;28;20588;-51
2023/09/21 21:37:10;;;;;;;10.18;5.90;;;;;;;21.87;57.31;97485.81;10288750;28;20540;-53
2023/09/21 21:42:09;;;;;;;9.93;5.40;;;;;;;21.95;56.11;97485.44;10287966;28;20050;-51
2023/09/21 21:47:08;;;;;;;10.40;6.00;;;;;;;22.00;56.10;97470.22;10288552;28;20073;-52
2023/09/21 21:52:07;;;;;;;11.93;5.63;;;;;;;22.05;56.34;97475.28;10286654;28;20116;-52
2023/09/21 21:57:06;;;;;;;11.18;5.95;;;;;;;22.02;56.61;97467.53;10288091;28;20117;-55
2023/09/21 22:02:05;;;;;;;15.20;6.00;;;;;;;22.05;55.70;97470.84;10284532;28;20038;-52
2023/09/21 22:07:04;;;;;;;9.63;5.78;;;;;;;22.17;55.51;97479.91;10280672;28;20116;-53
2023/09/21 22:12:05;;;;;;;12.73;6.22;;;;;;;22.22;55.38;97483.16;10286133;28;20132;-52
2023/09/21 22:17:04;;;;;;;13.27;7.07;;;;;;;22.24;55.02;97494.53;10266523;28;20142;-51
2023/09/21 22:22:03;;;;;;;15.00;7.20;;;;;;;22.29;54.73;97495.13;10284318;28;20033;-51
2023/09/21 22:27:02;;;;;;;12.88;6.95;;;;;;;22.36;54.16;97488.56;10286069;28;20077;-52
2023/09/21 22:32:01;;;;;;;14.43;6.90;;;;;;;22.39;54.33;97488.44;10286301;28;20480;-51
2023/09/21 22:37:00;;;;;;;9.93;6.20;;;;;;;22.36;54.00;97499.16;10286143;28;20507;-52
2023/09/21 22:41:59;;;;;;;15.30;5.88;;;;;;;22.37;54.00;97489.47;10285650;28;20039;-52
2023/09/21 22:46:58;;;;;;;9.93;5.78;;;;;;;22.37;53.89;97498.22;10262627;28;20113;-52
2023/09/21 22:51:57;;;;;;;9.57;6.18;;;;;;;22.41;54.16;97504.19;10284055;28;20117;-51
2023/09/21 22:56:56;;;;;;;8.07;5.85;;;;;;;22.12;53.83;97460.81;10285280;28;20076;-51